sensor_id;sensor_type;location;lat;lon;timestamp;pressure;altitude;pressure_sealevel;temperature;humidity
49947;BME280;35839;48.662;13.300;2023-04-28T05:05:05;97336.34;;;10.95;85.52
49947;BME280;35839;48.662;13.300;2023-04-28T05:07:31;97338.09;;;11.38;81.74
49947;BME280;35839;48.662;13.300;2023-04-28T05:09:56;97333.22;;;11.17;84.49
49947;BME280;35839;48.662;13.300;2023-04-28T05:12:21;97330.09;;;11.40;82.55
49947;BME280;35839;48.662;13.300;2023-04-28T05:14:47;97321.63;;;10.32;90.64
49947;BME280;35839;48.662;13.300;2023-04-28T05:17:12;97323.47;;;10.22;92.93
49947;BME280;35839;48.662;13.300;2023-04-28T05:19:37;97317.53;;;10.91;91.48
49947;BME280;35839;48.662;13.300;2023-04-28T05:22:03;97312.94;;;11.54;86.75
49947;BME280;35839;48.662;13.300;2023-04-28T05:24:28;97313.03;;;11.44;85.26
49947;BME280;35839;48.662;13.300;2023-04-28T05:26:57;97304.25;;;11.96;81.04
49947;BME280;35839;48.662;13.300;2023-04-28T05:29:22;97308.88;;;12.10;81.09
49947;BME280;35839;48.662;13.300;2023-04-28T05:31:47;97305.63;;;12.25;79.03
49947;BME280;35839;48.662;13.300;2023-04-28T05:34:13;97308.75;;;12.36;78.46
49947;BME280;35839;48.662;13.300;2023-04-28T05:36:38;97311.19;;;12.62;74.82
49947;BME280;35839;48.662;13.300;2023-04-28T05:39:03;97311.22;;;12.54;72.49
49947;BME280;35839;48.662;13.300;2023-04-28T05:41:29;97306.09;;;12.20;72.69
49947;BME280;35839;48.662;13.300;2023-04-28T05:43:54;97295.13;;;12.57;69.95
49947;BME280;35839;48.662;13.300;2023-04-28T05:46:20;97295.41;;;12.13;71.42
49947;BME280;35839;48.662;13.300;2023-04-28T05:48:45;97304.81;;;12.40;73.45
49947;BME280;35839;48.662;13.300;2023-04-28T05:51:11;97302.69;;;12.69;72.73
49947;BME280;35839;48.662;13.300;2023-04-28T05:53:36;97297.72;;;12.98;72.86
49947;BME280;35839;48.662;13.300;2023-04-28T05:56:02;97297.41;;;12.85;71.42
49947;BME280;35839;48.662;13.300;2023-04-28T05:58:27;97301.38;;;12.73;73.35
49947;BME280;35839;48.662;13.300;2023-04-28T06:00:53;97295.09;;;12.82;71.92
49947;BME280;35839;48.662;13.300;2023-04-28T06:03:19;97290.50;;;12.92;71.35
49947;BME280;35839;48.662;13.300;2023-04-28T06:05:44;97273.25;;;13.54;68.58
49947;BME280;35839;48.662;13.300;2023-04-28T06:08:10;97278.50;;;13.54;66.25
49947;BME280;35839;48.662;13.300;2023-04-28T06:10:35;97282.56;;;13.00;69.17
49947;BME280;35839;48.662;13.300;2023-04-28T06:13:00;97276.69;;;12.98;69.18
49947;BME280;35839;48.662;13.300;2023-04-28T06:15:29;97274.25;;;12.72;71.29
49947;BME280;35839;48.662;13.300;2023-04-28T06:17:54;97283.13;;;12.63;72.81
49947;BME280;35839;48.662;13.300;2023-04-28T06:20:19;97284.44;;;12.67;72.90
49947;BME280;35839;48.662;13.300;2023-04-28T06:22:45;97280.00;;;12.76;72.03
49947;BME280;35839;48.662;13.300;2023-04-28T06:25:10;97280.94;;;12.99;71.60
49947;BME280;35839;48.662;13.300;2023-04-28T06:27:35;97297.72;;;13.54;70.41
49947;BME280;35839;48.662;13.300;2023-04-28T06:30:01;97283.09;;;14.14;70.14
49947;BME280;35839;48.662;13.300;2023-04-28T06:32:26;97286.28;;;14.56;66.09
49947;BME280;35839;48.662;13.300;2023-04-28T06:34:51;97282.16;;;14.07;67.67
49947;BME280;35839;48.662;13.300;2023-04-28T06:37:17;97280.75;;;13.65;67.85
49947;BME280;35839;48.662;13.300;2023-04-28T06:39:43;97278.78;;;13.59;69.38
49947;BME280;35839;48.662;13.300;2023-04-28T06:42:08;97266.16;;;13.54;67.97
49947;BME280;35839;48.662;13.300;2023-04-28T06:44:33;97268.31;;;13.82;72.37
49947;BME280;35839;48.662;13.300;2023-04-28T06:46:58;97275.84;;;14.16;70.75
49947;BME280;35839;48.662;13.300;2023-04-28T06:49:24;97285.34;;;14.48;67.97
49947;BME280;35839;48.662;13.300;2023-04-28T06:51:49;97279.94;;;14.65;66.02
49947;BME280;35839;48.662;13.300;2023-04-28T06:54:14;97276.56;;;14.56;65.49
49947;BME280;35839;48.662;13.300;2023-04-28T06:56:40;97275.06;;;14.62;66.06
49947;BME280;35839;48.662;13.300;2023-04-28T06:59:06;97282.88;;;14.85;65.02
49947;BME280;35839;48.662;13.300;2023-04-28T07:01:32;97281.94;;;15.15;64.37
49947;BME280;35839;48.662;13.300;2023-04-28T07:03:57;97286.47;;;15.22;62.95
49947;BME280;35839;48.662;13.300;2023-04-28T07:06:22;97280.47;;;15.28;62.87
49947;BME280;35839;48.662;13.300;2023-04-28T07:08:48;97278.91;;;15.33;61.87
49947;BME280;35839;48.662;13.300;2023-04-28T07:11:13;97276.84;;;15.44;61.74
49947;BME280;35839;48.662;13.300;2023-04-28T07:13:39;97270.56;;;15.30;61.97
49947;BME280;35839;48.662;13.300;2023-04-28T07:16:05;97266.56;;;15.19;61.02
49947;BME280;35839;48.662;13.300;2023-04-28T07:18:30;97258.66;;;15.34;60.93
49947;BME280;35839;48.662;13.300;2023-04-28T07:20:55;97262.28;;;15.33;60.74
49947;BME280;35839;48.662;13.300;2023-04-28T07:23:21;97256.72;;;15.43;61.06
49947;BME280;35839;48.662;13.300;2023-04-28T07:25:46;97266.94;;;15.46;61.18
49947;BME280;35839;48.662;13.300;2023-04-28T07:28:11;97249.72;;;15.35;62.02
49947;BME280;35839;48.662;13.300;2023-04-28T07:30:37;97262.56;;;15.23;61.56
49947;BME280;35839;48.662;13.300;2023-04-28T07:33:02;97263.81;;;15.42;62.17
49947;BME280;35839;48.662;13.300;2023-04-28T07:35:28;97266.22;;;15.22;59.52
49947;BME280;35839;48.662;13.300;2023-04-28T07:37:53;97261.44;;;15.62;60.85
49947;BME280;35839;48.662;13.300;2023-04-28T07:40:19;97260.69;;;15.68;59.05
49947;BME280;35839;48.662;13.300;2023-04-28T07:42:45;97260.34;;;15.56;56.41
49947;BME280;35839;48.662;13.300;2023-04-28T07:45:10;97258.22;;;15.82;57.02
49947;BME280;35839;48.662;13.300;2023-04-28T07:47:36;97254.25;;;15.71;56.58
49947;BME280;35839;48.662;13.300;2023-04-28T07:50:02;97243.59;;;16.00;59.35
49947;BME280;35839;48.662;13.300;2023-04-28T07:52:30;97243.16;;;15.60;61.27
49947;BME280;35839;48.662;13.300;2023-04-28T07:54:57;97242.06;;;15.40;62.97
49947;BME280;35839;48.662;13.300;2023-04-28T07:57:22;97233.91;;;15.35;61.39
49947;BME280;35839;48.662;13.300;2023-04-28T07:59:47;97235.59;;;15.43;61.35
49947;BME280;35839;48.662;13.300;2023-04-28T08:02:13;97229.50;;;15.72;60.33
49947;BME280;35839;48.662;13.300;2023-04-28T08:04:39;97232.66;;;15.67;60.45
49947;BME280;35839;48.662;13.300;2023-04-28T08:07:04;97235.56;;;16.09;61.23
49947;BME280;35839;48.662;13.300;2023-04-28T08:09:30;97230.97;;;15.96;59.52
49947;BME280;35839;48.662;13.300;2023-04-28T08:11:55;97229.69;;;15.70;61.43
49947;BME280;35839;48.662;13.300;2023-04-28T08:14:21;97239.47;;;16.34;58.79
49947;BME280;35839;48.662;13.300;2023-04-28T08:16:46;97235.00;;;16.63;56.28
49947;BME280;35839;48.662;13.300;2023-04-28T08:19:12;97236.41;;;16.59;56.87
49947;BME280;35839;48.662;13.300;2023-04-28T08:21:38;97231.78;;;16.39;56.95
49947;BME280;35839;48.662;13.300;2023-04-28T08:24:03;97226.22;;;16.56;58.60
49947;BME280;35839;48.662;13.300;2023-04-28T08:26:28;97221.84;;;16.70;58.77
49947;BME280;35839;48.662;13.300;2023-04-28T08:28:54;97220.38;;;16.89;58.33
49947;BME280;35839;48.662;13.300;2023-04-28T08:31:19;97225.09;;;16.93;56.55
49947;BME280;35839;48.662;13.300;2023-04-28T08:33:44;97224.00;;;17.22;55.23
49947;BME280;35839;48.662;13.300;2023-04-28T08:36:12;97223.28;;;17.00;57.90
49947;BME280;35839;48.662;13.300;2023-04-28T08:38:39;97218.31;;;17.67;54.54
49947;BME280;35839;48.662;13.300;2023-04-28T08:41:05;97216.41;;;18.22;52.98
49947;BME280;35839;48.662;13.300;2023-04-28T08:43:34;97218.06;;;18.30;51.39
49947;BME280;35839;48.662;13.300;2023-04-28T08:46:04;97219.84;;;17.48;50.64
49947;BME280;35839;48.662;13.300;2023-04-28T08:48:36;97233.34;;;17.60;52.37
49947;BME280;35839;48.662;13.300;2023-04-28T08:51:04;97240.25;;;17.54;51.29
49947;BME280;35839;48.662;13.300;2023-04-28T08:53:31;97241.13;;;17.68;51.50
49947;BME280;35839;48.662;13.300;2023-04-28T08:55:57;97239.56;;;17.87;49.21
49947;BME280;35839;48.662;13.300;2023-04-28T08:58:23;97251.91;;;17.66;49.17
49947;BME280;35839;48.662;13.300;2023-04-28T09:00:51;97245.56;;;18.22;48.65
49947;BME280;35839;48.662;13.300;2023-04-28T09:03:16;97251.81;;;17.88;50.65
49947;BME280;35839;48.662;13.300;2023-04-28T09:05:42;97247.00;;;18.31;49.12
49947;BME280;35839;48.662;13.300;2023-04-28T09:08:07;97249.91;;;17.75;49.93
49947;BME280;35839;48.662;13.300;2023-04-28T09:10:33;97258.56;;;17.49;50.70
49947;BME280;35839;48.662;13.300;2023-04-28T09:12:58;97254.03;;;17.43;49.52
49947;BME280;35839;48.662;13.300;2023-04-28T09:17:50;97249.81;;;18.10;50.72
49947;BME280;35839;48.662;13.300;2023-04-28T09:20:20;97244.94;;;18.20;51.55
49947;BME280;35839;48.662;13.300;2023-04-28T09:22:47;97256.56;;;17.64;54.82
49947;BME280;35839;48.662;13.300;2023-04-28T09:25:12;97255.16;;;18.30;52.97
49947;BME280;35839;48.662;13.300;2023-04-28T09:27:38;97252.81;;;17.87;53.28
49947;BME280;35839;48.662;13.300;2023-04-28T09:30:03;97253.50;;;18.09;51.58
49947;BME280;35839;48.662;13.300;2023-04-28T09:32:29;97250.41;;;18.05;53.08
49947;BME280;35839;48.662;13.300;2023-04-28T09:34:55;97253.50;;;18.29;53.33
49947;BME280;35839;48.662;13.300;2023-04-28T09:37:25;97251.06;;;17.59;53.00
49947;BME280;35839;48.662;13.300;2023-04-28T09:39:52;97249.84;;;17.55;54.58
49947;BME280;35839;48.662;13.300;2023-04-28T09:42:41;97243.19;;;17.79;54.54
49947;BME280;35839;48.662;13.300;2023-04-28T09:45:09;97243.75;;;18.63;51.72
49947;BME280;35839;48.662;13.300;2023-04-28T09:47:45;97241.31;;;18.74;53.47
49947;BME280;35839;48.662;13.300;2023-04-28T09:50:13;97231.50;;;18.62;51.40
49947;BME280;35839;48.662;13.300;2023-04-28T09:52:55;97227.41;;;18.99;51.70
49947;BME280;35839;48.662;13.300;2023-04-28T09:55:21;97227.38;;;19.19;52.18
49947;BME280;35839;48.662;13.300;2023-04-28T09:57:48;97218.53;;;19.32;52.49
49947;BME280;35839;48.662;13.300;2023-04-28T10:00:14;97221.19;;;19.32;51.08
49947;BME280;35839;48.662;13.300;2023-04-28T10:02:44;97223.31;;;19.16;49.43
49947;BME280;35839;48.662;13.300;2023-04-28T10:05:10;97221.69;;;18.16;50.61
49947;BME280;35839;48.662;13.300;2023-04-28T10:07:35;97230.78;;;17.32;53.51
49947;BME280;35839;48.662;13.300;2023-04-28T10:10:02;97213.28;;;17.31;53.96
49947;BME280;35839;48.662;13.300;2023-04-28T10:12:28;97214.38;;;17.08;54.89
49947;BME280;35839;48.662;13.300;2023-04-28T10:14:56;97207.19;;;16.67;56.66
49947;BME280;35839;48.662;13.300;2023-04-28T10:17:22;97206.56;;;17.28;55.28
49947;BME280;35839;48.662;13.300;2023-04-28T10:19:51;97207.88;;;17.52;56.92
49947;BME280;35839;48.662;13.300;2023-04-28T10:27:37;97205.78;;;18.02;55.28
49947;BME280;35839;48.662;13.300;2023-04-28T10:32:36;97201.50;;;16.98;56.64
49947;BME280;35839;48.662;13.300;2023-04-28T10:38:17;97202.22;;;17.68;57.57
49947;BME280;35839;48.662;13.300;2023-04-28T10:40:46;97198.84;;;18.01;56.36
49947;BME280;35839;48.662;13.300;2023-04-28T10:48:19;97194.88;;;17.70;60.12
49947;BME280;35839;48.662;13.300;2023-04-28T10:56:12;97199.34;;;17.15;63.22
49947;BME280;35839;48.662;13.300;2023-04-28T10:58:40;97192.38;;;17.01;67.00
49947;BME280;35839;48.662;13.300;2023-04-28T11:03:55;97194.69;;;17.65;64.19
49947;BME280;35839;48.662;13.300;2023-04-28T11:06:43;97192.19;;;17.51;67.19
49947;BME280;35839;48.662;13.300;2023-04-28T11:19:25;97189.78;;;17.14;73.31
49947;BME280;35839;48.662;13.300;2023-04-28T11:21:53;97184.31;;;17.16;74.59
49947;BME280;35839;48.662;13.300;2023-04-28T11:24:20;97188.31;;;17.05;74.41
49947;BME280;35839;48.662;13.300;2023-04-28T11:26:46;97183.47;;;17.09;77.91
49947;BME280;35839;48.662;13.300;2023-04-28T11:29:12;97185.25;;;16.73;83.87
49947;BME280;35839;48.662;13.300;2023-04-28T11:31:39;97191.13;;;16.97;82.74
49947;BME280;35839;48.662;13.300;2023-04-28T11:34:10;97187.00;;;16.88;82.42
49947;BME280;35839;48.662;13.300;2023-04-28T11:36:40;97191.88;;;16.84;81.76
49947;BME280;35839;48.662;13.300;2023-04-28T11:39:07;97196.97;;;16.85;79.85
49947;BME280;35839;48.662;13.300;2023-04-28T11:41:38;97200.50;;;16.43;81.17
49947;BME280;35839;48.662;13.300;2023-04-28T11:44:15;97198.25;;;16.40;84.60
49947;BME280;35839;48.662;13.300;2023-04-28T11:46:48;97190.38;;;16.47;85.57
49947;BME280;35839;48.662;13.300;2023-04-28T11:49:21;97185.19;;;16.60;81.02
49947;BME280;35839;48.662;13.300;2023-04-28T11:51:49;97184.97;;;16.33;81.35
49947;BME280;35839;48.662;13.300;2023-04-28T11:54:25;97178.94;;;16.39;81.79
49947;BME280;35839;48.662;13.300;2023-04-28T11:56:52;97183.72;;;16.29;83.75
49947;BME280;35839;48.662;13.300;2023-04-28T12:01:51;97186.41;;;16.36;83.93
49947;BME280;35839;48.662;13.300;2023-04-28T12:07:01;97195.69;;;15.82;85.18
49947;BME280;35839;48.662;13.300;2023-04-28T12:09:27;97190.63;;;15.66;87.06
49947;BME280;35839;48.662;13.300;2023-04-28T12:11:57;97196.31;;;15.48;91.26
49947;BME280;35839;48.662;13.300;2023-04-28T12:14:23;97183.75;;;15.86;87.80
49947;BME280;35839;48.662;13.300;2023-04-28T12:16:49;97186.16;;;15.81;89.41
49947;BME280;35839;48.662;13.300;2023-04-28T12:19:16;97191.78;;;15.78;91.22
49947;BME280;35839;48.662;13.300;2023-04-28T12:21:42;97191.41;;;16.02;89.00
49947;BME280;35839;48.662;13.300;2023-04-28T12:24:19;97194.66;;;16.26;85.98
49947;BME280;35839;48.662;13.300;2023-04-28T12:26:44;97195.25;;;16.00;86.63
49947;BME280;35839;48.662;13.300;2023-04-28T12:29:39;97198.88;;;16.42;86.42
49947;BME280;35839;48.662;13.300;2023-04-28T12:32:10;97179.69;;;16.33;86.13
49947;BME280;35839;48.662;13.300;2023-04-28T12:34:36;97157.34;;;16.36;87.17
49947;BME280;35839;48.662;13.300;2023-04-28T12:37:03;97141.41;;;16.51;87.83
49947;BME280;35839;48.662;13.300;2023-04-28T12:39:33;97132.88;;;16.20;88.66
49947;BME280;35839;48.662;13.300;2023-04-28T12:41:59;97141.19;;;16.24;89.69
49947;BME280;35839;48.662;13.300;2023-04-28T12:44:30;97143.50;;;16.06;88.79
49947;BME280;35839;48.662;13.300;2023-04-28T12:47:01;97152.28;;;16.34;87.96
49947;BME280;35839;48.662;13.300;2023-04-28T12:49:27;97159.75;;;16.31;87.73
49947;BME280;35839;48.662;13.300;2023-04-28T12:51:52;97169.22;;;16.18;87.01
49947;BME280;35839;48.662;13.300;2023-04-28T12:54:18;97161.22;;;15.32;97.52
49947;BME280;35839;48.662;13.300;2023-04-28T12:56:43;97168.31;;;15.68;94.78
49947;BME280;35839;48.662;13.300;2023-04-28T12:59:08;97170.16;;;15.89;94.12
49947;BME280;35839;48.662;13.300;2023-04-28T13:01:34;97171.19;;;15.88;94.56
49947;BME280;35839;48.662;13.300;2023-04-28T13:03:59;97169.09;;;15.47;97.00
49947;BME280;35839;48.662;13.300;2023-04-28T13:06:25;97172.38;;;15.49;95.43
49947;BME280;35839;48.662;13.300;2023-04-28T13:08:51;97162.03;;;15.69;94.77
49947;BME280;35839;48.662;13.300;2023-04-28T13:11:16;97158.06;;;15.58;95.04
49947;BME280;35839;48.662;13.300;2023-04-28T13:13:41;97147.19;;;15.47;97.67
49947;BME280;35839;48.662;13.300;2023-04-28T13:16:09;97153.69;;;15.14;99.13
49947;BME280;35839;48.662;13.300;2023-04-28T13:18:34;97149.91;;;14.58;100.00
49947;BME280;35839;48.662;13.300;2023-04-28T13:20:59;97156.69;;;14.52;100.00
49947;BME280;35839;48.662;13.300;2023-04-28T13:23:25;97155.59;;;14.31;100.00
49947;BME280;35839;48.662;13.300;2023-04-28T13:25:50;97154.94;;;14.29;100.00
49947;BME280;35839;48.662;13.300;2023-04-28T13:28:16;97146.41;;;14.42;100.00
49947;BME280;35839;48.662;13.300;2023-04-28T13:30:41;97133.13;;;14.73;100.00
49947;BME280;35839;48.662;13.300;2023-04-28T13:33:06;97140.03;;;15.26;100.00
49947;BME280;35839;48.662;13.300;2023-04-28T13:35:31;97125.91;;;14.97;100.00
49947;BME280;35839;48.662;13.300;2023-04-28T13:37:57;97130.75;;;14.79;100.00
49947;BME280;35839;48.662;13.300;2023-04-28T13:40:29;97130.72;;;14.93;100.00
49947;BME280;35839;48.662;13.300;2023-04-28T13:42:55;97124.66;;;14.63;100.00
49947;BME280;35839;48.662;13.300;2023-04-28T13:45:20;97131.53;;;14.94;100.00
49947;BME280;35839;48.662;13.300;2023-04-28T13:47:46;97124.13;;;14.83;100.00
49947;BME280;35839;48.662;13.300;2023-04-28T13:50:12;97123.47;;;14.66;100.00
49947;BME280;35839;48.662;13.300;2023-04-28T13:52:37;97125.09;;;14.82;100.00
49947;BME280;35839;48.662;13.300;2023-04-28T13:55:03;97119.38;;;14.63;100.00
49947;BME280;35839;48.662;13.300;2023-04-28T13:57:28;97114.22;;;14.55;100.00
49947;BME280;35839;48.662;13.300;2023-04-28T13:59:54;97115.53;;;14.51;100.00
49947;BME280;35839;48.662;13.300;2023-04-28T14:02:20;97110.44;;;14.34;100.00
49947;BME280;35839;48.662;13.300;2023-04-28T14:04:45;97114.44;;;14.30;100.00
49947;BME280;35839;48.662;13.300;2023-04-28T14:07:15;97113.88;;;14.20;100.00
49947;BME280;35839;48.662;13.300;2023-04-28T14:09:41;97113.53;;;14.53;100.00
49947;BME280;35839;48.662;13.300;2023-04-28T14:12:07;97114.91;;;14.49;100.00
49947;BME280;35839;48.662;13.300;2023-04-28T14:14:33;97116.47;;;14.58;100.00
49947;BME280;35839;48.662;13.300;2023-04-28T14:16:58;97120.22;;;14.79;100.00
49947;BME280;35839;48.662;13.300;2023-04-28T14:19:23;97124.03;;;14.76;100.00
49947;BME280;35839;48.662;13.300;2023-04-28T14:21:51;97121.91;;;15.01;100.00
49947;BME280;35839;48.662;13.300;2023-04-28T14:24:16;97127.31;;;15.14;100.00
49947;BME280;35839;48.662;13.300;2023-04-28T14:26:43;97123.47;;;15.32;100.00
49947;BME280;35839;48.662;13.300;2023-04-28T14:29:08;97119.75;;;15.63;100.00
49947;BME280;35839;48.662;13.300;2023-04-28T14:31:33;97118.72;;;15.42;100.00
49947;BME280;35839;48.662;13.300;2023-04-28T14:33:59;97127.22;;;15.23;100.00
49947;BME280;35839;48.662;13.300;2023-04-28T14:36:25;97118.22;;;15.32;100.00
49947;BME280;35839;48.662;13.300;2023-04-28T14:38:51;97121.09;;;15.37;100.00
49947;BME280;35839;48.662;13.300;2023-04-28T14:41:16;97115.06;;;15.07;100.00
49947;BME280;35839;48.662;13.300;2023-04-28T14:43:42;97104.69;;;15.05;100.00
49947;BME280;35839;48.662;13.300;2023-04-28T14:46:07;97105.56;;;14.91;100.00
49947;BME280;35839;48.662;13.300;2023-04-28T14:48:35;97091.69;;;15.40;100.00
49947;BME280;35839;48.662;13.300;2023-04-28T14:51:00;97084.50;;;15.12;100.00
49947;BME280;35839;48.662;13.300;2023-04-28T14:53:26;97087.06;;;15.42;100.00
49947;BME280;35839;48.662;13.300;2023-04-28T14:55:51;97079.56;;;15.24;100.00
49947;BME280;35839;48.662;13.300;2023-04-28T14:58:17;97079.84;;;15.14;100.00
49947;BME280;35839;48.662;13.300;2023-04-28T15:00:42;97070.97;;;15.15;100.00
49947;BME280;35839;48.662;13.300;2023-04-28T15:03:08;97070.22;;;15.43;100.00
49947;BME280;35839;48.662;13.300;2023-04-28T15:05:33;97074.28;;;15.24;100.00
49947;BME280;35839;48.662;13.300;2023-04-28T15:07:58;97073.44;;;15.02;100.00
49947;BME280;35839;48.662;13.300;2023-04-28T15:10:25;97069.56;;;14.83;100.00
49947;BME280;35839;48.662;13.300;2023-04-28T15:12:56;97073.41;;;14.81;100.00
49947;BME280;35839;48.662;13.300;2023-04-28T15:15:21;97070.84;;;14.72;100.00
49947;BME280;35839;48.662;13.300;2023-04-28T15:17:46;97062.19;;;15.30;100.00
49947;BME280;35839;48.662;13.300;2023-04-28T15:20:12;97072.25;;;15.41;100.00
49947;BME280;35839;48.662;13.300;2023-04-28T15:22:37;97075.69;;;15.20;100.00
49947;BME280;35839;48.662;13.300;2023-04-28T15:25:03;97067.09;;;14.96;100.00
49947;BME280;35839;48.662;13.300;2023-04-28T15:27:28;97061.59;;;15.13;100.00
49947;BME280;35839;48.662;13.300;2023-04-28T15:29:53;97053.28;;;14.94;100.00
49947;BME280;35839;48.662;13.300;2023-04-28T15:32:18;97051.59;;;14.72;100.00
49947;BME280;35839;48.662;13.300;2023-04-28T15:34:44;97041.13;;;14.79;100.00
49947;BME280;35839;48.662;13.300;2023-04-28T15:40:06;97039.16;;;15.02;100.00
49947;BME280;35839;48.662;13.300;2023-04-28T15:42:31;97042.69;;;15.31;100.00
49947;BME280;35839;48.662;13.300;2023-04-28T15:44:57;97040.31;;;15.36;100.00
49947;BME280;35839;48.662;13.300;2023-04-28T15:47:22;97042.69;;;15.31;100.00
49947;BME280;35839;48.662;13.300;2023-04-28T15:49:50;97040.81;;;15.46;100.00
49947;BME280;35839;48.662;13.300;2023-04-28T15:52:16;97044.78;;;15.35;100.00
49947;BME280;35839;48.662;13.300;2023-04-28T15:54:42;97048.69;;;15.39;100.00
49947;BME280;35839;48.662;13.300;2023-04-28T15:57:07;97052.75;;;15.42;100.00
49947;BME280;35839;48.662;13.300;2023-04-28T15:59:33;97048.22;;;15.14;100.00
49947;BME280;35839;48.662;13.300;2023-04-28T16:01:59;97051.38;;;15.46;100.00
49947;BME280;35839;48.662;13.300;2023-04-28T16:04:25;97047.47;;;15.64;100.00
49947;BME280;35839;48.662;13.300;2023-04-28T16:06:50;97048.47;;;15.63;100.00
49947;BME280;35839;48.662;13.300;2023-04-28T16:09:17;97049.34;;;15.70;100.00
49947;BME280;35839;48.662;13.300;2023-04-28T16:11:42;97065.00;;;15.50;100.00
49947;BME280;35839;48.662;13.300;2023-04-28T16:14:07;97061.97;;;15.31;100.00
49947;BME280;35839;48.662;13.300;2023-04-28T16:16:33;97048.84;;;15.38;100.00
49947;BME280;35839;48.662;13.300;2023-04-28T16:18:58;97046.97;;;15.53;100.00
49947;BME280;35839;48.662;13.300;2023-04-28T16:21:23;97037.41;;;15.31;100.00
49947;BME280;35839;48.662;13.300;2023-04-28T16:23:50;97038.81;;;15.48;100.00
49947;BME280;35839;48.662;13.300;2023-04-28T16:26:15;97028.56;;;15.60;100.00
49947;BME280;35839;48.662;13.300;2023-04-28T16:28:41;97021.53;;;15.24;100.00
49947;BME280;35839;48.662;13.300;2023-04-28T16:31:11;97013.69;;;15.09;100.00
49947;BME280;35839;48.662;13.300;2023-04-28T16:33:36;97009.34;;;14.80;100.00
49947;BME280;35839;48.662;13.300;2023-04-28T16:36:02;97001.00;;;14.98;100.00
49947;BME280;35839;48.662;13.300;2023-04-28T16:38:27;96985.19;;;15.41;100.00
49947;BME280;35839;48.662;13.300;2023-04-28T16:40:53;96987.66;;;15.71;100.00
49947;BME280;35839;48.662;13.300;2023-04-28T16:43:18;96986.00;;;15.20;100.00
49947;BME280;35839;48.662;13.300;2023-04-28T16:45:44;96986.44;;;15.02;100.00
49947;BME280;35839;48.662;13.300;2023-04-28T16:48:09;97000.75;;;15.14;100.00
49947;BME280;35839;48.662;13.300;2023-04-28T16:50:34;96996.72;;;15.40;100.00
49947;BME280;35839;48.662;13.300;2023-04-28T16:53:00;96991.94;;;15.29;100.00
49947;BME280;35839;48.662;13.300;2023-04-28T16:55:25;96992.41;;;15.11;100.00
49947;BME280;35839;48.662;13.300;2023-04-28T16:57:51;96978.84;;;15.14;100.00
49947;BME280;35839;48.662;13.300;2023-04-28T17:00:16;96993.59;;;15.30;100.00
49947;BME280;35839;48.662;13.300;2023-04-28T17:02:42;96988.19;;;15.16;100.00
49947;BME280;35839;48.662;13.300;2023-04-28T17:05:08;96996.50;;;15.13;100.00
49947;BME280;35839;48.662;13.300;2023-04-28T17:07:33;96998.31;;;15.13;100.00
49947;BME280;35839;48.662;13.300;2023-04-28T17:09:59;96999.38;;;14.97;100.00
49947;BME280;35839;48.662;13.300;2023-04-28T17:12:24;97001.59;;;14.79;100.00
49947;BME280;35839;48.662;13.300;2023-04-28T17:14:50;97001.78;;;14.77;100.00
49947;BME280;35839;48.662;13.300;2023-04-28T17:17:15;97011.69;;;15.11;100.00
49947;BME280;35839;48.662;13.300;2023-04-28T17:19:42;97011.81;;;15.25;100.00
49947;BME280;35839;48.662;13.300;2023-04-28T17:22:07;97003.53;;;15.06;100.00
49947;BME280;35839;48.662;13.300;2023-04-28T17:24:32;97012.94;;;15.15;100.00
49947;BME280;35839;48.662;13.300;2023-04-28T17:26:58;97010.53;;;15.42;100.00
49947;BME280;35839;48.662;13.300;2023-04-28T17:29:24;97020.19;;;15.56;100.00
49947;BME280;35839;48.662;13.300;2023-04-28T17:31:49;97019.75;;;14.88;100.00
49947;BME280;35839;48.662;13.300;2023-04-28T17:34:14;97017.63;;;14.32;100.00
49947;BME280;35839;48.662;13.300;2023-04-28T17:36:40;97013.91;;;14.27;100.00
49947;BME280;35839;48.662;13.300;2023-04-28T17:39:06;97012.47;;;14.24;100.00
49947;BME280;35839;48.662;13.300;2023-04-28T17:41:31;97005.91;;;14.50;100.00
49947;BME280;35839;48.662;13.300;2023-04-28T17:43:56;96996.94;;;14.29;100.00
49947;BME280;35839;48.662;13.300;2023-04-28T17:46:22;96995.81;;;14.24;100.00
49947;BME280;35839;48.662;13.300;2023-04-28T17:48:48;96987.91;;;13.79;100.00
49947;BME280;35839;48.662;13.300;2023-04-28T17:51:13;96987.56;;;13.97;100.00
49947;BME280;35839;48.662;13.300;2023-04-28T17:53:39;96990.75;;;13.93;100.00
49947;BME280;35839;48.662;13.300;2023-04-28T17:56:06;96988.75;;;13.95;100.00
49947;BME280;35839;48.662;13.300;2023-04-28T17:58:32;96985.78;;;14.12;100.00
49947;BME280;35839;48.662;13.300;2023-04-28T18:00:59;96990.91;;;14.36;100.00
49947;BME280;35839;48.662;13.300;2023-04-28T18:03:24;96988.84;;;14.16;100.00
49947;BME280;35839;48.662;13.300;2023-04-28T18:05:50;96993.09;;;14.17;100.00
49947;BME280;35839;48.662;13.300;2023-04-28T18:08:15;97004.91;;;14.21;100.00
49947;BME280;35839;48.662;13.300;2023-04-28T18:10:40;97004.56;;;13.95;100.00
49947;BME280;35839;48.662;13.300;2023-04-28T18:13:06;97004.38;;;14.11;100.00
49947;BME280;35839;48.662;13.300;2023-04-28T18:15:32;96999.28;;;14.09;100.00
49947;BME280;35839;48.662;13.300;2023-04-28T18:17:58;96995.91;;;14.45;100.00
49947;BME280;35839;48.662;13.300;2023-04-28T18:20:23;96996.72;;;14.46;100.00
49947;BME280;35839;48.662;13.300;2023-04-28T18:22:48;97004.81;;;14.44;100.00
49947;BME280;35839;48.662;13.300;2023-04-28T18:25:14;96992.19;;;14.10;100.00
49947;BME280;35839;48.662;13.300;2023-04-28T18:27:41;96996.75;;;14.16;100.00
49947;BME280;35839;48.662;13.300;2023-04-28T18:30:07;97002.00;;;14.16;100.00